Terminal Aerodrome Forecast
Issued by NWS

Home | Current Version | Previous Version | Text Only | Print | Product List | Glossary On
Versions: 1 2 3 4 5 6 7 8 9 10 11 12 13 14 15 16 17 18
362
FTUS45 KRIW 300528
TAFRKS
TAF
KRKS 300528Z 3006/3106 26011KT P6SM SCT100 BKN200
     FM300900 24011KT P6SM SCT060 BKN100
     FM301800 21012G20KT P6SM SCT050 BKN080
     FM302100 20008KT P6SM VCSH BKN070
     FM310200 07011KT P6SM -RA SCT020 OVC028=

USA.gov is the U.S. government's official web portal to all federal, state and local government web resources and services.